sensor_id;sensor_type;location;lat;lon;timestamp;P1;durP1;ratioP1;P2;durP2;ratioP2
73980;SDS011;62348;51.412;5.436;2023-02-15T00:00:41;48.30;;;26.90;;
73980;SDS011;62348;51.412;5.436;2023-02-15T00:03:06;48.75;;;28.70;;
73980;SDS011;62348;51.412;5.436;2023-02-15T00:05:31;48.55;;;28.83;;
73980;SDS011;62348;51.412;5.436;2023-02-15T00:07:57;48.35;;;28.73;;
73980;SDS011;62348;51.412;5.436;2023-02-15T00:10:22;49.80;;;27.45;;
73980;SDS011;62348;51.412;5.436;2023-02-15T00:12:48;51.42;;;28.85;;
73980;SDS011;62348;51.412;5.436;2023-02-15T00:15:13;46.83;;;28.27;;
73980;SDS011;62348;51.412;5.436;2023-02-15T00:17:39;51.22;;;28.27;;
73980;SDS011;62348;51.412;5.436;2023-02-15T00:20:04;49.60;;;27.83;;
73980;SDS011;62348;51.412;5.436;2023-02-15T00:22:30;47.97;;;28.35;;
73980;SDS011;62348;51.412;5.436;2023-02-15T00:24:56;51.33;;;27.20;;
73980;SDS011;62348;51.412;5.436;2023-02-15T00:27:21;50.47;;;28.05;;
73980;SDS011;62348;51.412;5.436;2023-02-15T00:29:46;49.45;;;28.30;;
73980;SDS011;62348;51.412;5.436;2023-02-15T00:32:12;54.92;;;27.90;;
73980;SDS011;62348;51.412;5.436;2023-02-15T00:34:38;52.20;;;28.02;;
73980;SDS011;62348;51.412;5.436;2023-02-15T00:37:03;54.97;;;29.52;;
73980;SDS011;62348;51.412;5.436;2023-02-15T00:39:28;48.60;;;27.25;;
73980;SDS011;62348;51.412;5.436;2023-02-15T00:41:54;49.40;;;31.00;;
73980;SDS011;62348;51.412;5.436;2023-02-15T00:44:19;53.00;;;30.90;;
73980;SDS011;62348;51.412;5.436;2023-02-15T00:46:45;54.30;;;29.33;;
73980;SDS011;62348;51.412;5.436;2023-02-15T00:49:10;50.75;;;30.00;;
73980;SDS011;62348;51.412;5.436;2023-02-15T00:51:36;53.85;;;31.02;;
73980;SDS011;62348;51.412;5.436;2023-02-15T00:54:01;60.10;;;30.88;;
73980;SDS011;62348;51.412;5.436;2023-02-15T00:56:27;57.47;;;30.55;;
73980;SDS011;62348;51.412;5.436;2023-02-15T00:58:53;57.05;;;31.35;;
73980;SDS011;62348;51.412;5.436;2023-02-15T01:01:19;58.75;;;31.35;;
73980;SDS011;62348;51.412;5.436;2023-02-15T01:03:45;57.55;;;29.40;;
73980;SDS011;62348;51.412;5.436;2023-02-15T01:06:11;55.90;;;31.83;;
73980;SDS011;62348;51.412;5.436;2023-02-15T01:08:37;57.88;;;32.67;;
73980;SDS011;62348;51.412;5.436;2023-02-15T01:11:07;49.65;;;32.08;;
73980;SDS011;62348;51.412;5.436;2023-02-15T01:13:34;59.28;;;31.63;;
73980;SDS011;62348;51.412;5.436;2023-02-15T01:16:00;54.42;;;30.13;;
73980;SDS011;62348;51.412;5.436;2023-02-15T01:18:26;58.58;;;31.00;;
73980;SDS011;62348;51.412;5.436;2023-02-15T01:20:52;51.03;;;30.10;;
73980;SDS011;62348;51.412;5.436;2023-02-15T01:23:18;59.05;;;30.85;;
73980;SDS011;62348;51.412;5.436;2023-02-15T01:25:43;52.08;;;28.63;;
73980;SDS011;62348;51.412;5.436;2023-02-15T01:28:09;49.55;;;28.75;;
73980;SDS011;62348;51.412;5.436;2023-02-15T01:30:34;53.13;;;28.88;;
73980;SDS011;62348;51.412;5.436;2023-02-15T01:33:00;50.63;;;30.40;;
73980;SDS011;62348;51.412;5.436;2023-02-15T01:35:28;52.13;;;28.23;;
73980;SDS011;62348;51.412;5.436;2023-02-15T01:37:55;53.50;;;29.10;;
73980;SDS011;62348;51.412;5.436;2023-02-15T01:40:22;54.30;;;30.67;;
73980;SDS011;62348;51.412;5.436;2023-02-15T01:42:54;48.88;;;28.17;;
73980;SDS011;62348;51.412;5.436;2023-02-15T01:48:05;54.08;;;29.58;;
73980;SDS011;62348;51.412;5.436;2023-02-15T01:50:37;48.65;;;28.77;;
73980;SDS011;62348;51.412;5.436;2023-02-15T01:55:47;52.07;;;28.10;;
73980;SDS011;62348;51.412;5.436;2023-02-15T01:58:29;46.53;;;27.20;;
73980;SDS011;62348;51.412;5.436;2023-02-15T02:00:57;53.72;;;28.83;;
73980;SDS011;62348;51.412;5.436;2023-02-15T02:06:23;49.10;;;27.40;;
73980;SDS011;62348;51.412;5.436;2023-02-15T02:08:50;45.60;;;25.33;;
73980;SDS011;62348;51.412;5.436;2023-02-15T02:11:17;49.00;;;28.05;;
73980;SDS011;62348;51.412;5.436;2023-02-15T02:13:43;50.90;;;27.67;;
73980;SDS011;62348;51.412;5.436;2023-02-15T02:19:18;43.65;;;25.90;;
73980;SDS011;62348;51.412;5.436;2023-02-15T02:38:06;45.90;;;26.95;;
73980;SDS011;62348;51.412;5.436;2023-02-15T02:40:52;42.20;;;25.95;;
73980;SDS011;62348;51.412;5.436;2023-02-15T02:43:21;42.88;;;25.88;;
73980;SDS011;62348;51.412;5.436;2023-02-15T02:45:58;43.90;;;25.63;;
73980;SDS011;62348;51.412;5.436;2023-02-15T02:48:33;42.72;;;24.77;;
73980;SDS011;62348;51.412;5.436;2023-02-15T02:50:59;48.42;;;25.40;;
73980;SDS011;62348;51.412;5.436;2023-02-15T02:53:25;45.30;;;25.55;;
73980;SDS011;62348;51.412;5.436;2023-02-15T02:56:05;42.95;;;25.33;;
73980;SDS011;62348;51.412;5.436;2023-02-15T02:58:42;42.40;;;24.92;;
73980;SDS011;62348;51.412;5.436;2023-02-15T03:01:18;43.90;;;24.67;;
73980;SDS011;62348;51.412;5.436;2023-02-15T03:03:48;44.85;;;25.17;;
73980;SDS011;62348;51.412;5.436;2023-02-15T03:07:00;38.40;;;23.27;;
73980;SDS011;62348;51.412;5.436;2023-02-15T03:09:05;42.30;;;24.35;;
73980;SDS011;62348;51.412;5.436;2023-02-15T03:11:39;41.63;;;23.05;;
73980;SDS011;62348;51.412;5.436;2023-02-15T03:14:06;44.15;;;23.42;;
73980;SDS011;62348;51.412;5.436;2023-02-15T03:16:32;42.38;;;24.25;;
73980;SDS011;62348;51.412;5.436;2023-02-15T03:24:23;39.38;;;22.58;;
73980;SDS011;62348;51.412;5.436;2023-02-15T03:26:53;41.90;;;23.27;;
73980;SDS011;62348;51.412;5.436;2023-02-15T03:29:22;42.38;;;22.38;;
73980;SDS011;62348;51.412;5.436;2023-02-15T03:31:51;41.03;;;22.83;;
73980;SDS011;62348;51.412;5.436;2023-02-15T03:34:23;40.90;;;22.00;;
73980;SDS011;62348;51.412;5.436;2023-02-15T03:39:42;42.50;;;22.40;;
73980;SDS011;62348;51.412;5.436;2023-02-15T03:42:27;41.25;;;22.52;;
73980;SDS011;62348;51.412;5.436;2023-02-15T03:44:58;42.30;;;22.27;;
73980;SDS011;62348;51.412;5.436;2023-02-15T03:47:28;37.95;;;22.38;;
73980;SDS011;62348;51.412;5.436;2023-02-15T03:50:07;41.70;;;21.85;;
73980;SDS011;62348;51.412;5.436;2023-02-15T03:52:57;41.15;;;22.50;;
73980;SDS011;62348;51.412;5.436;2023-02-15T03:55:25;36.97;;;22.67;;
73980;SDS011;62348;51.412;5.436;2023-02-15T03:57:50;38.75;;;21.23;;
73980;SDS011;62348;51.412;5.436;2023-02-15T04:00:35;34.85;;;19.70;;
73980;SDS011;62348;51.412;5.436;2023-02-15T04:03:36;37.83;;;20.98;;
73980;SDS011;62348;51.412;5.436;2023-02-15T04:06:05;38.78;;;22.05;;
73980;SDS011;62348;51.412;5.436;2023-02-15T04:08:31;40.95;;;21.35;;
73980;SDS011;62348;51.412;5.436;2023-02-15T04:11:15;35.20;;;20.45;;
73980;SDS011;62348;51.412;5.436;2023-02-15T04:13:40;39.17;;;21.70;;
73980;SDS011;62348;51.412;5.436;2023-02-15T04:16:06;38.15;;;21.88;;
73980;SDS011;62348;51.412;5.436;2023-02-15T04:18:35;34.88;;;19.13;;
73980;SDS011;62348;51.412;5.436;2023-02-15T04:21:22;35.70;;;20.77;;
73980;SDS011;62348;51.412;5.436;2023-02-15T04:24:07;41.72;;;21.33;;
73980;SDS011;62348;51.412;5.436;2023-02-15T04:26:51;34.53;;;19.30;;
73980;SDS011;62348;51.412;5.436;2023-02-15T04:29:20;33.67;;;19.10;;
73980;SDS011;62348;51.412;5.436;2023-02-15T04:31:47;37.17;;;21.02;;
73980;SDS011;62348;51.412;5.436;2023-02-15T04:34:12;32.63;;;20.38;;
73980;SDS011;62348;51.412;5.436;2023-02-15T04:36:38;36.38;;;21.15;;
73980;SDS011;62348;51.412;5.436;2023-02-15T04:39:05;36.85;;;20.30;;
73980;SDS011;62348;51.412;5.436;2023-02-15T04:41:31;35.15;;;19.52;;
73980;SDS011;62348;51.412;5.436;2023-02-15T04:43:57;34.75;;;19.63;;
73980;SDS011;62348;51.412;5.436;2023-02-15T04:46:22;34.13;;;20.05;;
73980;SDS011;62348;51.412;5.436;2023-02-15T04:48:48;33.50;;;19.55;;
73980;SDS011;62348;51.412;5.436;2023-02-15T04:51:13;34.33;;;19.77;;
73980;SDS011;62348;51.412;5.436;2023-02-15T04:53:38;34.78;;;20.80;;
73980;SDS011;62348;51.412;5.436;2023-02-15T04:56:04;36.40;;;20.73;;
73980;SDS011;62348;51.412;5.436;2023-02-15T04:58:29;31.63;;;18.60;;
73980;SDS011;62348;51.412;5.436;2023-02-15T05:00:55;40.38;;;21.63;;
73980;SDS011;62348;51.412;5.436;2023-02-15T05:03:21;35.33;;;20.25;;
73980;SDS011;62348;51.412;5.436;2023-02-15T05:05:47;36.25;;;19.98;;
73980;SDS011;62348;51.412;5.436;2023-02-15T05:08:12;32.88;;;18.88;;
73980;SDS011;62348;51.412;5.436;2023-02-15T05:10:37;32.83;;;19.67;;
73980;SDS011;62348;51.412;5.436;2023-02-15T05:13:03;35.42;;;20.00;;
73980;SDS011;62348;51.412;5.436;2023-02-15T05:15:28;29.10;;;19.88;;
73980;SDS011;62348;51.412;5.436;2023-02-15T05:17:54;37.70;;;19.23;;
73980;SDS011;62348;51.412;5.436;2023-02-15T05:20:19;34.70;;;18.63;;
73980;SDS011;62348;51.412;5.436;2023-02-15T05:22:44;34.83;;;19.70;;
73980;SDS011;62348;51.412;5.436;2023-02-15T05:25:10;34.15;;;19.85;;
73980;SDS011;62348;51.412;5.436;2023-02-15T05:27:54;29.70;;;18.80;;
73980;SDS011;62348;51.412;5.436;2023-02-15T05:30:38;35.83;;;20.88;;
73980;SDS011;62348;51.412;5.436;2023-02-15T05:33:05;33.90;;;20.58;;
73980;SDS011;62348;51.412;5.436;2023-02-15T05:35:31;35.17;;;20.85;;
73980;SDS011;62348;51.412;5.436;2023-02-15T05:37:57;37.50;;;21.30;;
73980;SDS011;62348;51.412;5.436;2023-02-15T05:40:22;33.05;;;19.85;;
73980;SDS011;62348;51.412;5.436;2023-02-15T05:42:48;38.00;;;20.55;;
73980;SDS011;62348;51.412;5.436;2023-02-15T05:45:13;34.17;;;21.75;;
73980;SDS011;62348;51.412;5.436;2023-02-15T05:47:43;33.80;;;20.02;;
73980;SDS011;62348;51.412;5.436;2023-02-15T05:50:08;36.45;;;21.02;;
73980;SDS011;62348;51.412;5.436;2023-02-15T05:52:35;38.90;;;19.63;;
73980;SDS011;62348;51.412;5.436;2023-02-15T05:55:00;32.47;;;19.63;;
73980;SDS011;62348;51.412;5.436;2023-02-15T05:57:27;38.65;;;22.20;;
73980;SDS011;62348;51.412;5.436;2023-02-15T05:59:53;34.85;;;20.05;;
73980;SDS011;62348;51.412;5.436;2023-02-15T06:02:18;33.67;;;20.50;;
73980;SDS011;62348;51.412;5.436;2023-02-15T06:04:44;35.65;;;20.05;;
73980;SDS011;62348;51.412;5.436;2023-02-15T06:07:09;33.75;;;20.20;;
73980;SDS011;62348;51.412;5.436;2023-02-15T06:09:35;35.65;;;20.00;;
73980;SDS011;62348;51.412;5.436;2023-02-15T06:12:00;35.88;;;20.92;;
73980;SDS011;62348;51.412;5.436;2023-02-15T06:14:25;33.42;;;20.70;;
73980;SDS011;62348;51.412;5.436;2023-02-15T06:16:51;35.10;;;20.80;;
73980;SDS011;62348;51.412;5.436;2023-02-15T06:19:16;31.17;;;20.27;;
73980;SDS011;62348;51.412;5.436;2023-02-15T06:21:42;33.00;;;19.77;;
73980;SDS011;62348;51.412;5.436;2023-02-15T06:24:10;35.15;;;20.48;;
73980;SDS011;62348;51.412;5.436;2023-02-15T06:26:36;39.08;;;18.92;;
73980;SDS011;62348;51.412;5.436;2023-02-15T06:29:01;31.77;;;20.38;;
73980;SDS011;62348;51.412;5.436;2023-02-15T06:31:27;38.88;;;20.83;;
73980;SDS011;62348;51.412;5.436;2023-02-15T06:33:52;39.17;;;19.92;;
73980;SDS011;62348;51.412;5.436;2023-02-15T06:36:17;39.58;;;21.65;;
73980;SDS011;62348;51.412;5.436;2023-02-15T06:38:43;34.70;;;20.00;;
73980;SDS011;62348;51.412;5.436;2023-02-15T06:41:08;39.55;;;21.27;;
73980;SDS011;62348;51.412;5.436;2023-02-15T06:43:34;36.90;;;20.15;;
73980;SDS011;62348;51.412;5.436;2023-02-15T06:45:59;35.00;;;20.25;;
73980;SDS011;62348;51.412;5.436;2023-02-15T06:48:25;39.42;;;21.15;;
73980;SDS011;62348;51.412;5.436;2023-02-15T06:50:51;38.22;;;21.08;;
73980;SDS011;62348;51.412;5.436;2023-02-15T06:53:16;34.08;;;19.90;;
73980;SDS011;62348;51.412;5.436;2023-02-15T06:55:42;37.95;;;21.40;;
73980;SDS011;62348;51.412;5.436;2023-02-15T06:58:07;36.17;;;20.27;;
73980;SDS011;62348;51.412;5.436;2023-02-15T07:00:32;38.38;;;20.92;;
73980;SDS011;62348;51.412;5.436;2023-02-15T07:02:58;35.70;;;20.90;;
73980;SDS011;62348;51.412;5.436;2023-02-15T07:05:27;35.97;;;22.48;;
73980;SDS011;62348;51.412;5.436;2023-02-15T07:07:58;39.78;;;19.25;;
73980;SDS011;62348;51.412;5.436;2023-02-15T07:10:25;36.60;;;21.02;;
73980;SDS011;62348;51.412;5.436;2023-02-15T07:12:51;38.97;;;20.52;;
73980;SDS011;62348;51.412;5.436;2023-02-15T07:15:17;31.60;;;18.50;;
73980;SDS011;62348;51.412;5.436;2023-02-15T07:17:45;37.85;;;21.33;;
73980;SDS011;62348;51.412;5.436;2023-02-15T07:20:13;36.10;;;21.23;;
73980;SDS011;62348;51.412;5.436;2023-02-15T07:22:41;34.88;;;19.42;;
73980;SDS011;62348;51.412;5.436;2023-02-15T07:25:08;41.95;;;23.20;;
73980;SDS011;62348;51.412;5.436;2023-02-15T07:27:34;37.75;;;20.63;;
73980;SDS011;62348;51.412;5.436;2023-02-15T07:30:00;41.13;;;22.40;;
73980;SDS011;62348;51.412;5.436;2023-02-15T07:32:29;36.72;;;21.08;;
73980;SDS011;62348;51.412;5.436;2023-02-15T07:34:56;41.40;;;22.13;;
73980;SDS011;62348;51.412;5.436;2023-02-15T07:37:22;41.03;;;20.33;;
73980;SDS011;62348;51.412;5.436;2023-02-15T07:39:50;37.58;;;20.83;;
73980;SDS011;62348;51.412;5.436;2023-02-15T07:42:17;36.03;;;21.95;;
73980;SDS011;62348;51.412;5.436;2023-02-15T07:44:44;38.20;;;21.08;;
73980;SDS011;62348;51.412;5.436;2023-02-15T07:47:10;36.38;;;21.10;;
73980;SDS011;62348;51.412;5.436;2023-02-15T07:49:35;39.45;;;22.40;;
73980;SDS011;62348;51.412;5.436;2023-02-15T07:52:01;44.63;;;22.33;;
73980;SDS011;62348;51.412;5.436;2023-02-15T07:54:27;39.67;;;22.45;;
73980;SDS011;62348;51.412;5.436;2023-02-15T07:56:52;41.95;;;20.45;;
73980;SDS011;62348;51.412;5.436;2023-02-15T07:59:18;39.05;;;22.13;;
73980;SDS011;62348;51.412;5.436;2023-02-15T08:01:43;41.38;;;23.15;;
73980;SDS011;62348;51.412;5.436;2023-02-15T08:04:09;44.65;;;24.02;;
73980;SDS011;62348;51.412;5.436;2023-02-15T08:06:36;44.47;;;24.42;;
73980;SDS011;62348;51.412;5.436;2023-02-15T08:09:05;47.13;;;25.17;;
73980;SDS011;62348;51.412;5.436;2023-02-15T08:11:34;48.65;;;24.60;;
73980;SDS011;62348;51.412;5.436;2023-02-15T08:14:11;43.88;;;24.30;;
73980;SDS011;62348;51.412;5.436;2023-02-15T08:16:45;43.58;;;23.70;;
73980;SDS011;62348;51.412;5.436;2023-02-15T08:21:42;47.40;;;24.85;;
73980;SDS011;62348;51.412;5.436;2023-02-15T08:24:10;51.17;;;25.55;;
73980;SDS011;62348;51.412;5.436;2023-02-15T08:26:37;48.10;;;27.80;;
73980;SDS011;62348;51.412;5.436;2023-02-15T08:29:04;48.75;;;26.30;;
73980;SDS011;62348;51.412;5.436;2023-02-15T08:31:31;49.80;;;27.17;;
73980;SDS011;62348;51.412;5.436;2023-02-15T08:33:58;47.55;;;26.02;;
73980;SDS011;62348;51.412;5.436;2023-02-15T08:36:24;47.10;;;26.95;;
73980;SDS011;62348;51.412;5.436;2023-02-15T08:38:52;48.28;;;28.60;;
73980;SDS011;62348;51.412;5.436;2023-02-15T08:41:22;53.85;;;29.00;;
73980;SDS011;62348;51.412;5.436;2023-02-15T08:43:49;57.10;;;29.85;;
73980;SDS011;62348;51.412;5.436;2023-02-15T08:46:18;54.67;;;29.40;;
73980;SDS011;62348;51.412;5.436;2023-02-15T08:48:44;49.15;;;28.75;;
73980;SDS011;62348;51.412;5.436;2023-02-15T08:51:14;54.95;;;28.25;;
73980;SDS011;62348;51.412;5.436;2023-02-15T08:53:43;54.95;;;29.67;;
73980;SDS011;62348;51.412;5.436;2023-02-15T08:56:10;50.20;;;29.23;;
73980;SDS011;62348;51.412;5.436;2023-02-15T08:58:36;54.17;;;30.48;;
73980;SDS011;62348;51.412;5.436;2023-02-15T09:01:16;49.67;;;28.20;;
73980;SDS011;62348;51.412;5.436;2023-02-15T09:03:45;50.63;;;29.60;;
73980;SDS011;62348;51.412;5.436;2023-02-15T09:06:12;50.80;;;28.60;;
73980;SDS011;62348;51.412;5.436;2023-02-15T09:08:37;58.22;;;31.27;;
73980;SDS011;62348;51.412;5.436;2023-02-15T09:11:07;51.38;;;29.40;;
73980;SDS011;62348;51.412;5.436;2023-02-15T09:16:19;53.50;;;30.13;;
73980;SDS011;62348;51.412;5.436;2023-02-15T09:18:45;55.63;;;31.33;;
73980;SDS011;62348;51.412;5.436;2023-02-15T09:21:15;54.25;;;29.67;;
73980;SDS011;62348;51.412;5.436;2023-02-15T09:23:43;51.17;;;28.08;;
73980;SDS011;62348;51.412;5.436;2023-02-15T09:26:10;52.65;;;29.90;;
73980;SDS011;62348;51.412;5.436;2023-02-15T09:28:39;53.95;;;29.90;;
73980;SDS011;62348;51.412;5.436;2023-02-15T09:31:12;54.92;;;29.17;;
73980;SDS011;62348;51.412;5.436;2023-02-15T09:33:39;51.47;;;29.10;;
73980;SDS011;62348;51.412;5.436;2023-02-15T09:36:12;55.97;;;29.83;;
73980;SDS011;62348;51.412;5.436;2023-02-15T09:38:56;55.15;;;28.48;;
73980;SDS011;62348;51.412;5.436;2023-02-15T09:44:17;49.25;;;28.35;;
73980;SDS011;62348;51.412;5.436;2023-02-15T09:49:50;47.58;;;27.58;;
73980;SDS011;62348;51.412;5.436;2023-02-15T09:58:07;48.08;;;27.92;;
73980;SDS011;62348;51.412;5.436;2023-02-15T10:03:23;50.25;;;29.17;;
73980;SDS011;62348;51.412;5.436;2023-02-15T10:14:11;52.00;;;27.50;;
73980;SDS011;62348;51.412;5.436;2023-02-15T10:27:45;44.10;;;27.27;;
73980;SDS011;62348;51.412;5.436;2023-02-15T10:30:25;49.13;;;27.02;;
73980;SDS011;62348;51.412;5.436;2023-02-15T10:33:01;46.08;;;26.25;;
73980;SDS011;62348;51.412;5.436;2023-02-15T10:38:06;53.90;;;28.75;;
73980;SDS011;62348;51.412;5.436;2023-02-15T10:48:23;49.67;;;27.40;;
73980;SDS011;62348;51.412;5.436;2023-02-15T11:02:02;45.70;;;24.90;;
73980;SDS011;62348;51.412;5.436;2023-02-15T11:12:48;42.10;;;22.77;;
73980;SDS011;62348;51.412;5.436;2023-02-15T11:17:51;45.63;;;24.83;;
73980;SDS011;62348;51.412;5.436;2023-02-15T11:20:23;39.38;;;22.60;;
73980;SDS011;62348;51.412;5.436;2023-02-15T11:22:55;37.75;;;23.10;;
73980;SDS011;62348;51.412;5.436;2023-02-15T11:25:26;44.95;;;26.13;;
73980;SDS011;62348;51.412;5.436;2023-02-15T11:27:55;39.00;;;23.55;;
73980;SDS011;62348;51.412;5.436;2023-02-15T11:30:25;40.42;;;24.48;;
73980;SDS011;62348;51.412;5.436;2023-02-15T11:32:59;42.22;;;24.33;;
73980;SDS011;62348;51.412;5.436;2023-02-15T11:35:32;44.78;;;24.67;;
73980;SDS011;62348;51.412;5.436;2023-02-15T11:38:17;42.65;;;24.20;;
73980;SDS011;62348;51.412;5.436;2023-02-15T11:40:51;42.33;;;23.70;;
73980;SDS011;62348;51.412;5.436;2023-02-15T11:43:37;42.58;;;26.00;;
73980;SDS011;62348;51.412;5.436;2023-02-15T11:46:04;42.58;;;25.20;;
73980;SDS011;62348;51.412;5.436;2023-02-15T11:48:31;40.97;;;24.13;;
73980;SDS011;62348;51.412;5.436;2023-02-15T11:50:57;35.75;;;22.33;;
73980;SDS011;62348;51.412;5.436;2023-02-15T11:53:23;41.28;;;23.65;;
73980;SDS011;62348;51.412;5.436;2023-02-15T11:55:55;40.85;;;24.02;;
73980;SDS011;62348;51.412;5.436;2023-02-15T12:03:51;37.08;;;21.02;;
73980;SDS011;62348;51.412;5.436;2023-02-15T12:09:13;35.10;;;19.60;;
73980;SDS011;62348;51.412;5.436;2023-02-15T12:11:48;38.28;;;20.35;;
73980;SDS011;62348;51.412;5.436;2023-02-15T12:14:13;34.95;;;20.40;;
73980;SDS011;62348;51.412;5.436;2023-02-15T12:19:27;36.78;;;20.08;;
73980;SDS011;62348;51.412;5.436;2023-02-15T12:21:56;39.83;;;19.85;;
73980;SDS011;62348;51.412;5.436;2023-02-15T12:24:24;36.42;;;19.98;;
73980;SDS011;62348;51.412;5.436;2023-02-15T12:27:04;40.35;;;20.48;;
73980;SDS011;62348;51.412;5.436;2023-02-15T12:29:39;37.70;;;20.27;;
73980;SDS011;62348;51.412;5.436;2023-02-15T12:32:18;36.97;;;19.13;;
73980;SDS011;62348;51.412;5.436;2023-02-15T12:34:48;40.67;;;20.52;;
73980;SDS011;62348;51.412;5.436;2023-02-15T12:37:19;40.17;;;22.33;;
73980;SDS011;62348;51.412;5.436;2023-02-15T12:39:52;37.30;;;20.38;;
73980;SDS011;62348;51.412;5.436;2023-02-15T12:42:19;38.92;;;20.80;;
73980;SDS011;62348;51.412;5.436;2023-02-15T12:47:23;38.47;;;21.70;;
73980;SDS011;62348;51.412;5.436;2023-02-15T12:52:45;35.92;;;19.73;;
73980;SDS011;62348;51.412;5.436;2023-02-15T12:55:25;36.47;;;20.08;;
73980;SDS011;62348;51.412;5.436;2023-02-15T13:00:43;36.65;;;20.60;;
73980;SDS011;62348;51.412;5.436;2023-02-15T13:03:19;37.65;;;19.90;;
73980;SDS011;62348;51.412;5.436;2023-02-15T13:05:53;38.47;;;20.05;;
73980;SDS011;62348;51.412;5.436;2023-02-15T13:08:22;35.63;;;20.27;;
73980;SDS011;62348;51.412;5.436;2023-02-15T13:11:02;39.63;;;19.55;;
73980;SDS011;62348;51.412;5.436;2023-02-15T13:13:36;38.22;;;20.58;;
73980;SDS011;62348;51.412;5.436;2023-02-15T13:16:16;37.13;;;20.80;;
73980;SDS011;62348;51.412;5.436;2023-02-15T13:18:45;38.97;;;19.67;;
73980;SDS011;62348;51.412;5.436;2023-02-15T13:21:15;39.10;;;19.60;;
73980;SDS011;62348;51.412;5.436;2023-02-15T13:23:53;39.28;;;20.65;;
73980;SDS011;62348;51.412;5.436;2023-02-15T13:26:26;38.17;;;20.27;;
73980;SDS011;62348;51.412;5.436;2023-02-15T13:29:05;40.22;;;20.05;;
73980;SDS011;62348;51.412;5.436;2023-02-15T13:31:36;41.20;;;20.17;;
73980;SDS011;62348;51.412;5.436;2023-02-15T13:34:12;43.83;;;20.70;;
73980;SDS011;62348;51.412;5.436;2023-02-15T13:39:23;32.22;;;19.33;;
73980;SDS011;62348;51.412;5.436;2023-02-15T13:47:21;35.25;;;19.30;;
73980;SDS011;62348;51.412;5.436;2023-02-15T13:52:39;37.35;;;20.08;;
73980;SDS011;62348;51.412;5.436;2023-02-15T14:01:03;35.45;;;20.20;;
73980;SDS011;62348;51.412;5.436;2023-02-15T14:09:36;37.10;;;20.00;;
73980;SDS011;62348;51.412;5.436;2023-02-15T14:15:10;35.95;;;20.42;;
73980;SDS011;62348;51.412;5.436;2023-02-15T14:25:40;41.63;;;22.10;;
73980;SDS011;62348;51.412;5.436;2023-02-15T14:28:18;40.47;;;22.52;;
73980;SDS011;62348;51.412;5.436;2023-02-15T14:30:53;38.13;;;21.55;;
73980;SDS011;62348;51.412;5.436;2023-02-15T14:35:53;44.05;;;23.33;;
73980;SDS011;62348;51.412;5.436;2023-02-15T14:38:25;39.40;;;22.73;;
73980;SDS011;62348;51.412;5.436;2023-02-15T14:41:22;47.78;;;23.90;;
73980;SDS011;62348;51.412;5.436;2023-02-15T14:44:13;45.70;;;24.58;;
73980;SDS011;62348;51.412;5.436;2023-02-15T14:46:55;45.05;;;23.60;;
73980;SDS011;62348;51.412;5.436;2023-02-15T14:49:33;37.35;;;22.40;;
73980;SDS011;62348;51.412;5.436;2023-02-15T14:59:25;39.63;;;23.92;;
73980;SDS011;62348;51.412;5.436;2023-02-15T15:01:52;39.85;;;23.17;;
73980;SDS011;62348;51.412;5.436;2023-02-15T15:04:23;40.83;;;24.38;;
73980;SDS011;62348;51.412;5.436;2023-02-15T15:07:00;36.15;;;24.00;;
73980;SDS011;62348;51.412;5.436;2023-02-15T15:09:33;40.20;;;24.25;;
73980;SDS011;62348;51.412;5.436;2023-02-15T15:14:45;37.38;;;23.27;;
73980;SDS011;62348;51.412;5.436;2023-02-15T15:17:13;38.88;;;23.10;;
73980;SDS011;62348;51.412;5.436;2023-02-15T15:19:58;36.22;;;22.75;;
73980;SDS011;62348;51.412;5.436;2023-02-15T15:22:24;40.95;;;24.08;;
73980;SDS011;62348;51.412;5.436;2023-02-15T15:35:55;39.85;;;22.30;;
73980;SDS011;62348;51.412;5.436;2023-02-15T15:49:36;39.05;;;22.33;;
73980;SDS011;62348;51.412;5.436;2023-02-15T15:52:17;41.50;;;22.85;;
73980;SDS011;62348;51.412;5.436;2023-02-15T15:54:46;37.90;;;22.95;;
73980;SDS011;62348;51.412;5.436;2023-02-15T15:57:31;41.72;;;24.75;;
73980;SDS011;62348;51.412;5.436;2023-02-15T16:00:00;38.22;;;22.85;;
73980;SDS011;62348;51.412;5.436;2023-02-15T16:02:26;38.15;;;23.35;;
73980;SDS011;62348;51.412;5.436;2023-02-15T16:04:52;36.47;;;23.55;;
73980;SDS011;62348;51.412;5.436;2023-02-15T16:09:59;36.15;;;22.33;;
73980;SDS011;62348;51.412;5.436;2023-02-15T16:12:27;38.35;;;22.88;;
73980;SDS011;62348;51.412;5.436;2023-02-15T16:14:54;41.80;;;22.48;;
73980;SDS011;62348;51.412;5.436;2023-02-15T16:17:22;40.10;;;22.42;;
73980;SDS011;62348;51.412;5.436;2023-02-15T16:19:49;37.58;;;22.40;;
73980;SDS011;62348;51.412;5.436;2023-02-15T16:22:21;39.60;;;23.88;;
73980;SDS011;62348;51.412;5.436;2023-02-15T16:30:13;45.75;;;25.20;;
73980;SDS011;62348;51.412;5.436;2023-02-15T16:32:47;41.45;;;25.35;;
73980;SDS011;62348;51.412;5.436;2023-02-15T16:35:17;46.95;;;26.25;;
73980;SDS011;62348;51.412;5.436;2023-02-15T16:37:44;42.92;;;26.08;;
73980;SDS011;62348;51.412;5.436;2023-02-15T16:42:47;49.40;;;27.92;;
73980;SDS011;62348;51.412;5.436;2023-02-15T16:45:14;47.40;;;27.08;;
73980;SDS011;62348;51.412;5.436;2023-02-15T16:47:46;43.13;;;26.55;;
73980;SDS011;62348;51.412;5.436;2023-02-15T16:50:28;50.88;;;27.23;;
73980;SDS011;62348;51.412;5.436;2023-02-15T16:52:59;45.72;;;27.00;;
73980;SDS011;62348;51.412;5.436;2023-02-15T16:55:27;48.92;;;27.60;;
73980;SDS011;62348;51.412;5.436;2023-02-15T16:57:58;45.92;;;26.60;;
73980;SDS011;62348;51.412;5.436;2023-02-15T17:00:28;48.90;;;25.48;;
73980;SDS011;62348;51.412;5.436;2023-02-15T17:02:59;47.35;;;25.88;;
73980;SDS011;62348;51.412;5.436;2023-02-15T17:05:32;47.95;;;26.52;;
73980;SDS011;62348;51.412;5.436;2023-02-15T17:08:19;45.55;;;26.33;;
73980;SDS011;62348;51.412;5.436;2023-02-15T17:13:23;45.17;;;27.52;;
73980;SDS011;62348;51.412;5.436;2023-02-15T17:18:29;41.22;;;26.67;;
73980;SDS011;62348;51.412;5.436;2023-02-15T17:20:58;46.13;;;26.77;;
73980;SDS011;62348;51.412;5.436;2023-02-15T17:23:36;44.40;;;25.95;;
73980;SDS011;62348;51.412;5.436;2023-02-15T17:26:11;47.47;;;27.23;;
73980;SDS011;62348;51.412;5.436;2023-02-15T17:28:45;49.95;;;28.45;;
73980;SDS011;62348;51.412;5.436;2023-02-15T17:31:13;51.83;;;26.77;;
73980;SDS011;62348;51.412;5.436;2023-02-15T17:33:41;47.50;;;28.33;;
73980;SDS011;62348;51.412;5.436;2023-02-15T17:38:39;47.10;;;29.55;;
73980;SDS011;62348;51.412;5.436;2023-02-15T17:41:27;48.42;;;29.25;;
73980;SDS011;62348;51.412;5.436;2023-02-15T17:43:54;51.97;;;29.42;;
73980;SDS011;62348;51.412;5.436;2023-02-15T17:46:19;45.45;;;28.45;;
73980;SDS011;62348;51.412;5.436;2023-02-15T17:48:48;50.90;;;28.60;;
73980;SDS011;62348;51.412;5.436;2023-02-15T17:51:16;51.63;;;28.88;;
73980;SDS011;62348;51.412;5.436;2023-02-15T17:53:44;47.90;;;28.48;;
73980;SDS011;62348;51.412;5.436;2023-02-15T17:56:31;51.08;;;30.38;;
73980;SDS011;62348;51.412;5.436;2023-02-15T17:58:57;50.17;;;29.77;;
73980;SDS011;62348;51.412;5.436;2023-02-15T18:01:22;48.28;;;29.70;;
73980;SDS011;62348;51.412;5.436;2023-02-15T18:04:12;48.22;;;28.67;;
73980;SDS011;62348;51.412;5.436;2023-02-15T18:06:57;49.22;;;28.13;;
73980;SDS011;62348;51.412;5.436;2023-02-15T18:09:43;47.90;;;29.10;;